sensor_id;sensor_type;location;lat;lon;timestamp;temperature;humidity
45643;DHT22;31358;46.008;11.144;2022-08-16T00:01:25;22.20;92.30
45643;DHT22;31358;46.008;11.144;2022-08-16T00:03:52;22.30;92.00
45643;DHT22;31358;46.008;11.144;2022-08-16T00:06:17;22.20;92.20
45643;DHT22;31358;46.008;11.144;2022-08-16T00:08:43;21.90;92.30
45643;DHT22;31358;46.008;11.144;2022-08-16T00:11:10;22.10;92.20
45643;DHT22;31358;46.008;11.144;2022-08-16T00:13:36;22.10;91.80
45643;DHT22;31358;46.008;11.144;2022-08-16T00:16:02;22.20;92.00
45643;DHT22;31358;46.008;11.144;2022-08-16T00:18:28;22.10;92.10
45643;DHT22;31358;46.008;11.144;2022-08-16T00:20:54;22.10;92.20
45643;DHT22;31358;46.008;11.144;2022-08-16T00:23:20;21.90;92.60
45643;DHT22;31358;46.008;11.144;2022-08-16T00:25:45;21.80;92.60
45643;DHT22;31358;46.008;11.144;2022-08-16T00:28:11;22.00;92.40
45643;DHT22;31358;46.008;11.144;2022-08-16T00:30:38;21.80;92.40
45643;DHT22;31358;46.008;11.144;2022-08-16T00:33:03;21.80;92.50
45643;DHT22;31358;46.008;11.144;2022-08-16T00:35:33;21.70;92.70
45643;DHT22;31358;46.008;11.144;2022-08-16T00:38:00;21.80;92.80
45643;DHT22;31358;46.008;11.144;2022-08-16T00:40:43;21.60;93.40
45643;DHT22;31358;46.008;11.144;2022-08-16T00:43:13;21.50;93.20
45643;DHT22;31358;46.008;11.144;2022-08-16T00:48:20;21.20;94.00
45643;DHT22;31358;46.008;11.144;2022-08-16T00:50:46;21.20;94.10
45643;DHT22;31358;46.008;11.144;2022-08-16T00:53:14;21.20;94.30
45643;DHT22;31358;46.008;11.144;2022-08-16T00:55:45;21.00;94.50
45643;DHT22;31358;46.008;11.144;2022-08-16T00:58:12;21.10;94.60
45643;DHT22;31358;46.008;11.144;2022-08-16T01:00:39;20.90;94.80
45643;DHT22;31358;46.008;11.144;2022-08-16T01:03:08;20.80;95.10
45643;DHT22;31358;46.008;11.144;2022-08-16T01:05:35;20.60;95.40
45643;DHT22;31358;46.008;11.144;2022-08-16T01:08:02;20.90;95.10
45643;DHT22;31358;46.008;11.144;2022-08-16T01:10:30;20.70;95.40
45643;DHT22;31358;46.008;11.144;2022-08-16T01:12:56;20.70;95.40
45643;DHT22;31358;46.008;11.144;2022-08-16T01:15:22;20.70;95.30
45643;DHT22;31358;46.008;11.144;2022-08-16T01:17:48;20.90;95.10
45643;DHT22;31358;46.008;11.144;2022-08-16T01:20:15;20.90;95.20
45643;DHT22;31358;46.008;11.144;2022-08-16T01:23:07;20.90;95.10
45643;DHT22;31358;46.008;11.144;2022-08-16T01:25:37;20.90;95.10
45643;DHT22;31358;46.008;11.144;2022-08-16T01:28:10;20.90;95.20
45643;DHT22;31358;46.008;11.144;2022-08-16T01:30:40;21.00;95.00
45643;DHT22;31358;46.008;11.144;2022-08-16T01:33:07;21.00;95.00
45643;DHT22;31358;46.008;11.144;2022-08-16T01:36:04;21.20;94.90
45643;DHT22;31358;46.008;11.144;2022-08-16T01:38:39;21.10;95.10
45643;DHT22;31358;46.008;11.144;2022-08-16T01:41:20;20.90;95.30
45643;DHT22;31358;46.008;11.144;2022-08-16T01:43:48;20.80;95.80
45643;DHT22;31358;46.008;11.144;2022-08-16T01:46:27;20.60;95.90
45643;DHT22;31358;46.008;11.144;2022-08-16T01:49:14;20.30;96.40
45643;DHT22;31358;46.008;11.144;2022-08-16T01:51:43;20.10;96.80
45643;DHT22;31358;46.008;11.144;2022-08-16T01:54:10;20.20;96.90
45643;DHT22;31358;46.008;11.144;2022-08-16T01:56:36;20.10;97.10
45643;DHT22;31358;46.008;11.144;2022-08-16T01:59:05;20.00;97.10
45643;DHT22;31358;46.008;11.144;2022-08-16T02:01:32;19.90;97.50
45643;DHT22;31358;46.008;11.144;2022-08-16T02:03:57;19.90;97.60
45643;DHT22;31358;46.008;11.144;2022-08-16T02:06:23;19.90;97.70
45643;DHT22;31358;46.008;11.144;2022-08-16T02:08:50;19.60;98.20
45643;DHT22;31358;46.008;11.144;2022-08-16T02:11:16;19.60;98.10
45643;DHT22;31358;46.008;11.144;2022-08-16T02:13:42;19.80;97.90
45643;DHT22;31358;46.008;11.144;2022-08-16T02:16:12;19.80;97.80
45643;DHT22;31358;46.008;11.144;2022-08-16T02:18:38;20.00;97.80
45643;DHT22;31358;46.008;11.144;2022-08-16T02:21:05;20.10;97.40
45643;DHT22;31358;46.008;11.144;2022-08-16T02:23:33;20.20;97.20
45643;DHT22;31358;46.008;11.144;2022-08-16T02:26:00;20.20;97.30
45643;DHT22;31358;46.008;11.144;2022-08-16T02:28:26;20.20;97.20
45643;DHT22;31358;46.008;11.144;2022-08-16T02:30:54;20.10;97.40
45643;DHT22;31358;46.008;11.144;2022-08-16T02:33:22;20.10;97.30
45643;DHT22;31358;46.008;11.144;2022-08-16T02:35:48;20.10;97.30
45643;DHT22;31358;46.008;11.144;2022-08-16T02:38:14;20.20;97.10
45643;DHT22;31358;46.008;11.144;2022-08-16T02:40:39;20.30;97.10
45643;DHT22;31358;46.008;11.144;2022-08-16T02:43:06;20.30;97.00
45643;DHT22;31358;46.008;11.144;2022-08-16T02:45:31;20.40;97.00
45643;DHT22;31358;46.008;11.144;2022-08-16T02:47:57;20.30;97.10
45643;DHT22;31358;46.008;11.144;2022-08-16T02:50:24;20.30;97.20
45643;DHT22;31358;46.008;11.144;2022-08-16T02:52:50;20.20;97.20
45643;DHT22;31358;46.008;11.144;2022-08-16T02:55:17;20.20;97.20
45643;DHT22;31358;46.008;11.144;2022-08-16T02:57:43;20.30;97.20
45643;DHT22;31358;46.008;11.144;2022-08-16T03:00:10;20.20;97.20
45643;DHT22;31358;46.008;11.144;2022-08-16T03:02:39;20.20;97.20
45643;DHT22;31358;46.008;11.144;2022-08-16T03:05:06;20.20;97.20
45643;DHT22;31358;46.008;11.144;2022-08-16T03:07:33;20.10;97.40
45643;DHT22;31358;46.008;11.144;2022-08-16T03:09:59;20.20;97.20
45643;DHT22;31358;46.008;11.144;2022-08-16T03:12:24;20.20;97.30
45643;DHT22;31358;46.008;11.144;2022-08-16T03:14:50;20.20;97.50
45643;DHT22;31358;46.008;11.144;2022-08-16T03:17:16;20.00;97.70
45643;DHT22;31358;46.008;11.144;2022-08-16T03:19:42;19.90;97.80
45643;DHT22;31358;46.008;11.144;2022-08-16T03:22:08;19.70;98.30
45643;DHT22;31358;46.008;11.144;2022-08-16T03:24:34;19.70;98.30
45643;DHT22;31358;46.008;11.144;2022-08-16T03:27:00;19.60;98.40
45643;DHT22;31358;46.008;11.144;2022-08-16T03:29:27;19.50;98.70
45643;DHT22;31358;46.008;11.144;2022-08-16T03:31:54;19.40;98.90
45643;DHT22;31358;46.008;11.144;2022-08-16T03:34:20;19.30;99.10
45643;DHT22;31358;46.008;11.144;2022-08-16T03:36:46;19.20;99.50
45643;DHT22;31358;46.008;11.144;2022-08-16T03:39:11;19.20;99.50
45643;DHT22;31358;46.008;11.144;2022-08-16T03:41:37;19.10;99.50
45643;DHT22;31358;46.008;11.144;2022-08-16T03:44:05;18.90;99.90
45643;DHT22;31358;46.008;11.144;2022-08-16T03:46:32;18.80;99.90
45643;DHT22;31358;46.008;11.144;2022-08-16T03:48:58;18.80;99.90
45643;DHT22;31358;46.008;11.144;2022-08-16T03:51:24;18.80;99.90
45643;DHT22;31358;46.008;11.144;2022-08-16T03:53:50;19.00;99.90
45643;DHT22;31358;46.008;11.144;2022-08-16T03:56:16;18.90;99.90
45643;DHT22;31358;46.008;11.144;2022-08-16T03:58:42;18.80;99.90
45643;DHT22;31358;46.008;11.144;2022-08-16T04:01:08;18.80;99.90
45643;DHT22;31358;46.008;11.144;2022-08-16T04:03:34;18.70;99.90
45643;DHT22;31358;46.008;11.144;2022-08-16T04:06:00;18.80;99.90
45643;DHT22;31358;46.008;11.144;2022-08-16T04:08:25;18.60;99.90
45643;DHT22;31358;46.008;11.144;2022-08-16T04:10:53;18.60;99.90
45643;DHT22;31358;46.008;11.144;2022-08-16T04:13:19;18.30;99.90
45643;DHT22;31358;46.008;11.144;2022-08-16T04:15:45;18.20;99.90
45643;DHT22;31358;46.008;11.144;2022-08-16T04:18:12;18.30;99.90
45643;DHT22;31358;46.008;11.144;2022-08-16T04:20:38;18.10;99.90
45643;DHT22;31358;46.008;11.144;2022-08-16T04:23:05;18.20;99.90
45643;DHT22;31358;46.008;11.144;2022-08-16T04:25:33;18.30;99.90
45643;DHT22;31358;46.008;11.144;2022-08-16T04:27:59;18.40;99.90
45643;DHT22;31358;46.008;11.144;2022-08-16T04:30:25;18.50;99.90
45643;DHT22;31358;46.008;11.144;2022-08-16T04:32:52;18.50;99.90
45643;DHT22;31358;46.008;11.144;2022-08-16T04:35:20;18.70;99.90
45643;DHT22;31358;46.008;11.144;2022-08-16T04:37:47;18.70;99.90
45643;DHT22;31358;46.008;11.144;2022-08-16T04:40:13;18.70;99.90
45643;DHT22;31358;46.008;11.144;2022-08-16T04:42:40;18.90;99.90
45643;DHT22;31358;46.008;11.144;2022-08-16T04:45:11;18.90;99.90
45643;DHT22;31358;46.008;11.144;2022-08-16T04:47:39;19.00;99.90
45643;DHT22;31358;46.008;11.144;2022-08-16T04:52:35;19.00;99.90
45643;DHT22;31358;46.008;11.144;2022-08-16T04:55:04;19.00;99.90
45643;DHT22;31358;46.008;11.144;2022-08-16T04:57:30;19.00;99.90
45643;DHT22;31358;46.008;11.144;2022-08-16T04:59:56;18.90;99.90
45643;DHT22;31358;46.008;11.144;2022-08-16T05:02:21;19.10;99.90
45643;DHT22;31358;46.008;11.144;2022-08-16T05:04:47;19.00;99.90
45643;DHT22;31358;46.008;11.144;2022-08-16T05:07:12;19.00;99.90
45643;DHT22;31358;46.008;11.144;2022-08-16T05:09:38;19.20;99.90
45643;DHT22;31358;46.008;11.144;2022-08-16T05:12:04;19.20;99.90
45643;DHT22;31358;46.008;11.144;2022-08-16T05:14:29;19.20;99.90
45643;DHT22;31358;46.008;11.144;2022-08-16T05:16:55;19.20;99.90
45643;DHT22;31358;46.008;11.144;2022-08-16T05:19:21;19.10;99.90
45643;DHT22;31358;46.008;11.144;2022-08-16T05:21:46;19.00;99.90
45643;DHT22;31358;46.008;11.144;2022-08-16T05:24:12;19.10;99.90
45643;DHT22;31358;46.008;11.144;2022-08-16T05:26:38;19.10;99.90
45643;DHT22;31358;46.008;11.144;2022-08-16T05:29:03;19.20;99.90
45643;DHT22;31358;46.008;11.144;2022-08-16T05:31:31;19.00;99.90
45643;DHT22;31358;46.008;11.144;2022-08-16T05:33:59;19.10;99.90
45643;DHT22;31358;46.008;11.144;2022-08-16T05:36:25;19.20;99.90
45643;DHT22;31358;46.008;11.144;2022-08-16T05:38:51;19.10;99.90
45643;DHT22;31358;46.008;11.144;2022-08-16T05:41:16;19.00;99.90
45643;DHT22;31358;46.008;11.144;2022-08-16T05:43:42;18.90;99.90
45643;DHT22;31358;46.008;11.144;2022-08-16T05:46:09;19.00;99.90
45643;DHT22;31358;46.008;11.144;2022-08-16T05:48:35;18.90;99.90
45643;DHT22;31358;46.008;11.144;2022-08-16T05:51:01;19.00;99.90
45643;DHT22;31358;46.008;11.144;2022-08-16T05:53:27;19.00;99.90
45643;DHT22;31358;46.008;11.144;2022-08-16T05:55:52;19.10;99.90
45643;DHT22;31358;46.008;11.144;2022-08-16T05:58:18;19.20;99.90
45643;DHT22;31358;46.008;11.144;2022-08-16T06:00:44;19.10;99.90
45643;DHT22;31358;46.008;11.144;2022-08-16T06:03:09;19.20;99.90
45643;DHT22;31358;46.008;11.144;2022-08-16T06:05:35;19.30;99.90
45643;DHT22;31358;46.008;11.144;2022-08-16T06:08:00;19.20;99.90
45643;DHT22;31358;46.008;11.144;2022-08-16T06:10:26;19.30;99.90
45643;DHT22;31358;46.008;11.144;2022-08-16T06:12:52;19.40;99.90
45643;DHT22;31358;46.008;11.144;2022-08-16T06:15:19;19.40;99.90
45643;DHT22;31358;46.008;11.144;2022-08-16T06:17:45;19.60;99.90
45643;DHT22;31358;46.008;11.144;2022-08-16T06:20:23;19.60;99.90
45643;DHT22;31358;46.008;11.144;2022-08-16T06:22:49;19.60;99.90
45643;DHT22;31358;46.008;11.144;2022-08-16T06:25:15;19.80;99.90
45643;DHT22;31358;46.008;11.144;2022-08-16T06:27:41;19.90;99.90
45643;DHT22;31358;46.008;11.144;2022-08-16T06:30:10;20.20;99.90
45643;DHT22;31358;46.008;11.144;2022-08-16T06:32:35;20.40;99.70
45643;DHT22;31358;46.008;11.144;2022-08-16T06:35:02;20.80;99.70
45643;DHT22;31358;46.008;11.144;2022-08-16T06:37:28;20.90;99.60
45643;DHT22;31358;46.008;11.144;2022-08-16T06:39:54;20.80;99.50
45643;DHT22;31358;46.008;11.144;2022-08-16T06:42:19;20.80;99.40
45643;DHT22;31358;46.008;11.144;2022-08-16T06:44:45;20.90;99.00
45643;DHT22;31358;46.008;11.144;2022-08-16T06:47:11;21.20;98.90
45643;DHT22;31358;46.008;11.144;2022-08-16T06:49:37;21.50;98.60
45643;DHT22;31358;46.008;11.144;2022-08-16T06:52:03;21.60;98.10
45643;DHT22;31358;46.008;11.144;2022-08-16T06:54:29;21.40;98.30
45643;DHT22;31358;46.008;11.144;2022-08-16T06:56:55;21.70;98.30
45643;DHT22;31358;46.008;11.144;2022-08-16T06:59:20;22.10;97.80
45643;DHT22;31358;46.008;11.144;2022-08-16T07:01:46;22.30;96.70
45643;DHT22;31358;46.008;11.144;2022-08-16T07:04:13;22.10;96.80
45643;DHT22;31358;46.008;11.144;2022-08-16T07:06:40;22.90;96.20
45643;DHT22;31358;46.008;11.144;2022-08-16T07:09:06;24.00;94.80
45643;DHT22;31358;46.008;11.144;2022-08-16T07:11:32;25.10;93.60
45643;DHT22;31358;46.008;11.144;2022-08-16T07:13:58;26.80;91.70
45643;DHT22;31358;46.008;11.144;2022-08-16T07:16:24;28.20;90.20
45643;DHT22;31358;46.008;11.144;2022-08-16T07:18:50;28.80;88.10
45643;DHT22;31358;46.008;11.144;2022-08-16T07:21:17;29.50;87.80
45643;DHT22;31358;46.008;11.144;2022-08-16T07:23:44;30.00;86.20
45643;DHT22;31358;46.008;11.144;2022-08-16T07:26:23;29.20;85.30
45643;DHT22;31358;46.008;11.144;2022-08-16T07:28:50;29.50;85.80
45643;DHT22;31358;46.008;11.144;2022-08-16T07:31:17;28.00;88.70
45643;DHT22;31358;46.008;11.144;2022-08-16T07:33:43;29.20;86.00
45643;DHT22;31358;46.008;11.144;2022-08-16T07:36:10;30.00;84.60
45643;DHT22;31358;46.008;11.144;2022-08-16T07:38:37;30.30;84.20
45643;DHT22;31358;46.008;11.144;2022-08-16T07:41:04;30.70;83.30
45643;DHT22;31358;46.008;11.144;2022-08-16T07:43:30;30.60;82.80
45643;DHT22;31358;46.008;11.144;2022-08-16T07:45:56;30.60;82.40
45643;DHT22;31358;46.008;11.144;2022-08-16T07:48:21;27.30;86.30
45643;DHT22;31358;46.008;11.144;2022-08-16T07:50:47;24.80;90.70
45643;DHT22;31358;46.008;11.144;2022-08-16T07:53:13;23.80;92.30
45643;DHT22;31358;46.008;11.144;2022-08-16T07:55:40;23.20;92.90
45643;DHT22;31358;46.008;11.144;2022-08-16T07:58:06;22.90;93.90
45643;DHT22;31358;46.008;11.144;2022-08-16T08:00:32;22.70;94.20
45643;DHT22;31358;46.008;11.144;2022-08-16T08:02:59;22.60;95.10
45643;DHT22;31358;46.008;11.144;2022-08-16T08:05:26;22.60;94.90
45643;DHT22;31358;46.008;11.144;2022-08-16T08:07:53;22.70;94.50
45643;DHT22;31358;46.008;11.144;2022-08-16T08:10:20;22.60;94.60
45643;DHT22;31358;46.008;11.144;2022-08-16T08:12:48;22.60;94.80
45643;DHT22;31358;46.008;11.144;2022-08-16T08:15:15;22.60;94.90
45643;DHT22;31358;46.008;11.144;2022-08-16T08:17:41;22.50;94.50
45643;DHT22;31358;46.008;11.144;2022-08-16T08:20:10;22.60;94.60
45643;DHT22;31358;46.008;11.144;2022-08-16T08:22:36;22.60;94.80
45643;DHT22;31358;46.008;11.144;2022-08-16T08:25:04;22.50;94.80
45643;DHT22;31358;46.008;11.144;2022-08-16T08:27:30;22.80;94.90
45643;DHT22;31358;46.008;11.144;2022-08-16T08:29:56;22.70;94.40
45643;DHT22;31358;46.008;11.144;2022-08-16T08:32:23;22.90;95.40
45643;DHT22;31358;46.008;11.144;2022-08-16T08:34:49;24.30;93.30
45643;DHT22;31358;46.008;11.144;2022-08-16T08:37:15;26.10;90.40
45643;DHT22;31358;46.008;11.144;2022-08-16T08:39:41;27.00;90.40
45643;DHT22;31358;46.008;11.144;2022-08-16T08:42:07;27.40;90.40
45643;DHT22;31358;46.008;11.144;2022-08-16T08:44:34;28.10;88.80
45643;DHT22;31358;46.008;11.144;2022-08-16T08:47:02;28.00;87.50
45643;DHT22;31358;46.008;11.144;2022-08-16T08:49:31;27.60;88.60
45643;DHT22;31358;46.008;11.144;2022-08-16T08:51:56;28.50;88.30
45643;DHT22;31358;46.008;11.144;2022-08-16T08:54:23;28.20;88.60
45643;DHT22;31358;46.008;11.144;2022-08-16T08:56:51;28.20;89.70
45643;DHT22;31358;46.008;11.144;2022-08-16T08:59:17;28.10;88.10
45643;DHT22;31358;46.008;11.144;2022-08-16T09:01:43;27.90;89.10
45643;DHT22;31358;46.008;11.144;2022-08-16T09:04:09;27.00;87.80
45643;DHT22;31358;46.008;11.144;2022-08-16T09:06:36;26.60;90.10
45643;DHT22;31358;46.008;11.144;2022-08-16T09:09:04;26.50;89.80
45643;DHT22;31358;46.008;11.144;2022-08-16T09:11:31;26.00;90.50
45643;DHT22;31358;46.008;11.144;2022-08-16T09:13:56;25.80;90.80
45643;DHT22;31358;46.008;11.144;2022-08-16T09:16:22;25.30;91.10
45643;DHT22;31358;46.008;11.144;2022-08-16T09:18:48;25.20;90.80
45643;DHT22;31358;46.008;11.144;2022-08-16T09:21:14;25.30;91.20
45643;DHT22;31358;46.008;11.144;2022-08-16T09:23:40;25.40;91.30
45643;DHT22;31358;46.008;11.144;2022-08-16T09:26:08;25.50;90.30
45643;DHT22;31358;46.008;11.144;2022-08-16T09:28:36;25.20;90.20
45643;DHT22;31358;46.008;11.144;2022-08-16T09:31:05;25.10;90.80
45643;DHT22;31358;46.008;11.144;2022-08-16T09:33:31;25.30;91.10
45643;DHT22;31358;46.008;11.144;2022-08-16T09:35:57;25.20;91.10
45643;DHT22;31358;46.008;11.144;2022-08-16T09:38:24;25.40;91.50
45643;DHT22;31358;46.008;11.144;2022-08-16T09:40:50;25.90;91.30
45643;DHT22;31358;46.008;11.144;2022-08-16T09:43:18;26.10;90.50
45643;DHT22;31358;46.008;11.144;2022-08-16T09:45:45;26.40;90.50
45643;DHT22;31358;46.008;11.144;2022-08-16T09:48:13;26.40;90.70
45643;DHT22;31358;46.008;11.144;2022-08-16T09:50:40;26.40;90.30
45643;DHT22;31358;46.008;11.144;2022-08-16T09:53:14;26.50;90.50
45643;DHT22;31358;46.008;11.144;2022-08-16T09:55:42;26.80;90.50
45643;DHT22;31358;46.008;11.144;2022-08-16T09:58:08;26.80;89.20
45643;DHT22;31358;46.008;11.144;2022-08-16T10:00:34;26.50;89.70
45643;DHT22;31358;46.008;11.144;2022-08-16T10:03:00;26.40;88.70
45643;DHT22;31358;46.008;11.144;2022-08-16T10:05:25;26.30;89.30
45643;DHT22;31358;46.008;11.144;2022-08-16T10:07:51;26.50;90.10
45643;DHT22;31358;46.008;11.144;2022-08-16T10:10:22;26.80;90.40
45643;DHT22;31358;46.008;11.144;2022-08-16T10:12:48;26.50;88.00
45643;DHT22;31358;46.008;11.144;2022-08-16T10:15:34;26.50;89.90
45643;DHT22;31358;46.008;11.144;2022-08-16T10:18:02;27.10;89.00
45643;DHT22;31358;46.008;11.144;2022-08-16T10:20:36;27.60;87.30
45643;DHT22;31358;46.008;11.144;2022-08-16T10:23:05;27.40;88.40
45643;DHT22;31358;46.008;11.144;2022-08-16T10:25:31;27.30;90.60
45643;DHT22;31358;46.008;11.144;2022-08-16T10:27:57;27.40;87.70
45643;DHT22;31358;46.008;11.144;2022-08-16T10:30:24;27.20;86.80
45643;DHT22;31358;46.008;11.144;2022-08-16T10:32:50;27.20;88.00
45643;DHT22;31358;46.008;11.144;2022-08-16T10:35:16;27.40;88.10
45643;DHT22;31358;46.008;11.144;2022-08-16T10:37:41;27.30;86.80
45643;DHT22;31358;46.008;11.144;2022-08-16T10:40:09;27.50;89.30
45643;DHT22;31358;46.008;11.144;2022-08-16T10:42:35;28.00;87.60
45643;DHT22;31358;46.008;11.144;2022-08-16T10:45:00;27.80;85.70
45643;DHT22;31358;46.008;11.144;2022-08-16T10:47:27;28.10;86.20
45643;DHT22;31358;46.008;11.144;2022-08-16T10:49:54;28.00;86.40
45643;DHT22;31358;46.008;11.144;2022-08-16T10:52:20;28.00;86.70
45643;DHT22;31358;46.008;11.144;2022-08-16T10:54:47;28.30;86.00
45643;DHT22;31358;46.008;11.144;2022-08-16T10:57:13;28.40;86.50
45643;DHT22;31358;46.008;11.144;2022-08-16T10:59:39;28.60;86.10
45643;DHT22;31358;46.008;11.144;2022-08-16T11:02:07;28.20;84.00
45643;DHT22;31358;46.008;11.144;2022-08-16T11:04:33;28.20;86.10
45643;DHT22;31358;46.008;11.144;2022-08-16T11:06:59;28.10;81.40
45643;DHT22;31358;46.008;11.144;2022-08-16T11:09:24;28.40;83.70
45643;DHT22;31358;46.008;11.144;2022-08-16T11:11:50;28.80;82.70
45643;DHT22;31358;46.008;11.144;2022-08-16T11:14:16;29.00;84.70
45643;DHT22;31358;46.008;11.144;2022-08-16T11:16:43;29.00;83.00
45643;DHT22;31358;46.008;11.144;2022-08-16T11:19:10;28.90;85.10
45643;DHT22;31358;46.008;11.144;2022-08-16T11:21:35;28.70;84.60
45643;DHT22;31358;46.008;11.144;2022-08-16T11:24:02;28.80;86.30
45643;DHT22;31358;46.008;11.144;2022-08-16T11:26:29;28.80;85.60
45643;DHT22;31358;46.008;11.144;2022-08-16T11:28:55;29.20;86.80
45643;DHT22;31358;46.008;11.144;2022-08-16T11:31:23;29.00;84.50
45643;DHT22;31358;46.008;11.144;2022-08-16T11:33:49;29.20;83.70
45643;DHT22;31358;46.008;11.144;2022-08-16T11:36:14;28.90;85.00
45643;DHT22;31358;46.008;11.144;2022-08-16T11:38:40;29.30;85.10
45643;DHT22;31358;46.008;11.144;2022-08-16T11:41:06;29.60;84.40
45643;DHT22;31358;46.008;11.144;2022-08-16T11:43:34;29.80;84.00
45643;DHT22;31358;46.008;11.144;2022-08-16T11:46:04;29.70;82.90
45643;DHT22;31358;46.008;11.144;2022-08-16T11:48:30;29.70;83.40
45643;DHT22;31358;46.008;11.144;2022-08-16T11:50:58;29.50;83.10
45643;DHT22;31358;46.008;11.144;2022-08-16T11:53:26;29.60;82.10
45643;DHT22;31358;46.008;11.144;2022-08-16T11:55:53;29.70;82.10
45643;DHT22;31358;46.008;11.144;2022-08-16T11:58:19;29.60;83.80
45643;DHT22;31358;46.008;11.144;2022-08-16T12:00:46;30.00;84.20
45643;DHT22;31358;46.008;11.144;2022-08-16T12:03:12;30.30;82.70
45643;DHT22;31358;46.008;11.144;2022-08-16T12:05:39;30.20;81.70
45643;DHT22;31358;46.008;11.144;2022-08-16T12:08:06;30.40;83.40
45643;DHT22;31358;46.008;11.144;2022-08-16T12:10:33;30.30;82.70
45643;DHT22;31358;46.008;11.144;2022-08-16T12:12:59;30.40;80.10
45643;DHT22;31358;46.008;11.144;2022-08-16T12:15:26;30.70;80.70
45643;DHT22;31358;46.008;11.144;2022-08-16T12:17:52;30.70;80.90
45643;DHT22;31358;46.008;11.144;2022-08-16T12:20:23;30.60;80.00
45643;DHT22;31358;46.008;11.144;2022-08-16T12:22:51;30.80;80.50
45643;DHT22;31358;46.008;11.144;2022-08-16T12:25:18;30.70;79.00
45643;DHT22;31358;46.008;11.144;2022-08-16T12:27:45;30.80;80.80
45643;DHT22;31358;46.008;11.144;2022-08-16T12:30:13;30.90;80.20
45643;DHT22;31358;46.008;11.144;2022-08-16T12:32:39;30.90;80.80
45643;DHT22;31358;46.008;11.144;2022-08-16T12:35:06;31.00;81.50
45643;DHT22;31358;46.008;11.144;2022-08-16T12:37:33;31.00;81.10
45643;DHT22;31358;46.008;11.144;2022-08-16T12:39:58;30.90;80.80
45643;DHT22;31358;46.008;11.144;2022-08-16T12:42:25;31.00;80.90
45643;DHT22;31358;46.008;11.144;2022-08-16T12:44:51;31.00;81.90
45643;DHT22;31358;46.008;11.144;2022-08-16T12:47:17;31.10;81.80
45643;DHT22;31358;46.008;11.144;2022-08-16T12:50:03;31.10;81.50
45643;DHT22;31358;46.008;11.144;2022-08-16T12:52:29;31.10;80.30
45643;DHT22;31358;46.008;11.144;2022-08-16T12:54:56;31.10;82.50
45643;DHT22;31358;46.008;11.144;2022-08-16T12:57:22;31.10;81.00
45643;DHT22;31358;46.008;11.144;2022-08-16T12:59:50;31.10;81.60
45643;DHT22;31358;46.008;11.144;2022-08-16T13:02:16;31.10;82.10
45643;DHT22;31358;46.008;11.144;2022-08-16T13:04:44;31.00;82.10
45643;DHT22;31358;46.008;11.144;2022-08-16T13:07:10;31.10;83.20
45643;DHT22;31358;46.008;11.144;2022-08-16T13:09:38;31.20;83.30
45643;DHT22;31358;46.008;11.144;2022-08-16T13:12:13;31.40;82.50
45643;DHT22;31358;46.008;11.144;2022-08-16T13:14:49;31.20;82.60
45643;DHT22;31358;46.008;11.144;2022-08-16T13:17:21;31.30;82.80
45643;DHT22;31358;46.008;11.144;2022-08-16T13:19:49;31.30;83.00
45643;DHT22;31358;46.008;11.144;2022-08-16T13:22:16;31.00;82.50
45643;DHT22;31358;46.008;11.144;2022-08-16T13:24:41;31.10;83.00
45643;DHT22;31358;46.008;11.144;2022-08-16T13:27:07;31.20;83.50
45643;DHT22;31358;46.008;11.144;2022-08-16T13:29:33;31.40;82.70
45643;DHT22;31358;46.008;11.144;2022-08-16T13:31:59;31.30;83.60
45643;DHT22;31358;46.008;11.144;2022-08-16T13:34:25;31.40;81.70
45643;DHT22;31358;46.008;11.144;2022-08-16T13:36:50;31.20;81.30
45643;DHT22;31358;46.008;11.144;2022-08-16T13:39:16;31.40;83.10
45643;DHT22;31358;46.008;11.144;2022-08-16T13:41:42;31.30;82.70
45643;DHT22;31358;46.008;11.144;2022-08-16T13:44:08;31.40;82.60
45643;DHT22;31358;46.008;11.144;2022-08-16T13:46:34;31.20;82.20
45643;DHT22;31358;46.008;11.144;2022-08-16T13:49:01;31.20;82.30
45643;DHT22;31358;46.008;11.144;2022-08-16T13:51:29;31.30;82.90
45643;DHT22;31358;46.008;11.144;2022-08-16T13:54:00;31.20;84.00
45643;DHT22;31358;46.008;11.144;2022-08-16T13:56:28;31.40;82.80
45643;DHT22;31358;46.008;11.144;2022-08-16T13:58:54;31.50;82.10
45643;DHT22;31358;46.008;11.144;2022-08-16T14:01:20;31.30;83.10
45643;DHT22;31358;46.008;11.144;2022-08-16T14:03:45;31.40;82.70
45643;DHT22;31358;46.008;11.144;2022-08-16T14:06:12;31.50;82.30
45643;DHT22;31358;46.008;11.144;2022-08-16T14:08:39;31.30;82.00
45643;DHT22;31358;46.008;11.144;2022-08-16T14:11:05;31.40;82.90
45643;DHT22;31358;46.008;11.144;2022-08-16T14:13:33;31.40;82.10
45643;DHT22;31358;46.008;11.144;2022-08-16T14:15:59;31.70;83.10
45643;DHT22;31358;46.008;11.144;2022-08-16T14:18:24;31.60;82.00
45643;DHT22;31358;46.008;11.144;2022-08-16T14:20:50;31.60;83.10
45643;DHT22;31358;46.008;11.144;2022-08-16T14:23:16;31.90;82.80
45643;DHT22;31358;46.008;11.144;2022-08-16T14:25:42;31.70;82.00
45643;DHT22;31358;46.008;11.144;2022-08-16T14:28:08;31.70;81.70
45643;DHT22;31358;46.008;11.144;2022-08-16T14:30:34;31.50;81.70
45643;DHT22;31358;46.008;11.144;2022-08-16T14:33:00;31.60;82.00
45643;DHT22;31358;46.008;11.144;2022-08-16T14:35:30;31.80;83.10
45643;DHT22;31358;46.008;11.144;2022-08-16T14:37:57;32.00;82.60
45643;DHT22;31358;46.008;11.144;2022-08-16T14:40:23;31.80;81.80
45643;DHT22;31358;46.008;11.144;2022-08-16T14:42:49;31.90;82.20
45643;DHT22;31358;46.008;11.144;2022-08-16T14:45:18;31.70;82.20
45643;DHT22;31358;46.008;11.144;2022-08-16T14:47:44;31.70;82.00
45643;DHT22;31358;46.008;11.144;2022-08-16T14:50:13;31.70;81.60
45643;DHT22;31358;46.008;11.144;2022-08-16T14:52:44;31.50;81.70
45643;DHT22;31358;46.008;11.144;2022-08-16T14:55:11;31.50;81.90
45643;DHT22;31358;46.008;11.144;2022-08-16T14:57:36;31.50;82.20
45643;DHT22;31358;46.008;11.144;2022-08-16T15:00:05;31.80;82.60
45643;DHT22;31358;46.008;11.144;2022-08-16T15:02:31;31.80;81.80
45643;DHT22;31358;46.008;11.144;2022-08-16T15:04:57;31.50;82.60
45643;DHT22;31358;46.008;11.144;2022-08-16T15:07:23;31.50;82.40
45643;DHT22;31358;46.008;11.144;2022-08-16T15:09:49;31.50;81.50
45643;DHT22;31358;46.008;11.144;2022-08-16T15:12:19;31.40;81.80
45643;DHT22;31358;46.008;11.144;2022-08-16T15:14:47;31.60;82.30
45643;DHT22;31358;46.008;11.144;2022-08-16T15:17:16;31.60;82.00
45643;DHT22;31358;46.008;11.144;2022-08-16T15:19:43;31.70;82.30